createdAt,value
2018-04-07T04:00:45.628Z,0
2018-04-07T04:01:11.113Z,0
2018-04-07T04:01:36.579Z,0
2018-04-07T04:02:02.048Z,0
2018-04-07T04:02:27.549Z,0
2018-04-07T04:02:53.034Z,0
2018-04-07T04:03:18.530Z,0
2018-04-07T04:03:44.017Z,0
2018-04-07T04:04:09.513Z,0
2018-04-07T04:04:35.009Z,0
2018-04-07T04:05:00.488Z,0
2018-04-07T04:05:25.975Z,0
2018-04-07T04:05:51.417Z,0
2018-04-07T04:06:16.898Z,0
2018-04-07T04:06:42.379Z,0
2018-04-07T04:07:07.870Z,0
2018-04-07T04:07:33.327Z,0
2018-04-07T04:07:58.810Z,0
2018-04-07T04:08:24.284Z,0
2018-04-07T04:08:49.761Z,0
2018-04-07T04:09:15.219Z,0
2018-04-07T04:09:40.706Z,0
2018-04-07T04:10:06.218Z,0
2018-04-07T04:10:31.723Z,0
2018-04-07T04:10:57.226Z,0
2018-04-07T04:11:22.718Z,0
2018-04-07T04:11:48.217Z,0
2018-04-07T04:12:13.721Z,0
2018-04-07T04:12:39.211Z,0
2018-04-07T04:13:04.681Z,0
2018-04-07T04:13:30.146Z,0
2018-04-07T04:13:55.639Z,0
2018-04-07T04:14:21.153Z,0
2018-04-07T04:14:46.606Z,0
2018-04-07T04:15:12.085Z,0
2018-04-07T04:15:37.574Z,0
2018-04-07T04:16:03.097Z,0
2018-04-07T04:16:28.572Z,0
2018-04-07T04:16:54.051Z,0
2018-04-07T04:17:19.552Z,0
2018-04-07T04:17:45.053Z,0
2018-04-07T04:18:10.546Z,0
2018-04-07T04:18:36.043Z,0
2018-04-07T04:19:01.522Z,0
2018-04-07T04:19:26.987Z,0
2018-04-07T04:19:52.458Z,0
2018-04-07T04:20:17.930Z,0
2018-04-07T04:20:43.430Z,0
2018-04-07T04:21:08.894Z,0
2018-04-07T04:21:34.355Z,0
2018-04-07T04:21:59.846Z,0
2018-04-07T04:22:25.352Z,0
2018-04-07T04:22:50.833Z,0
2018-04-07T04:23:16.345Z,0
2018-04-07T04:23:41.905Z,0
2018-04-07T04:24:07.374Z,0
2018-04-07T04:24:32.843Z,0
2018-04-07T04:24:58.320Z,0
2018-04-07T04:25:23.793Z,0
2018-04-07T04:25:49.302Z,0
2018-04-07T04:26:14.770Z,0
2018-04-07T04:26:40.238Z,0
2018-04-07T04:27:05.712Z,0
2018-04-07T04:27:31.160Z,0
2018-04-07T04:27:56.642Z,0
2018-04-07T04:28:22.101Z,0
2018-04-07T04:28:47.561Z,0
2018-04-07T04:29:13.051Z,0
2018-04-07T04:29:38.531Z,0
2018-04-07T04:30:03.990Z,0
2018-04-07T04:30:29.481Z,0
2018-04-07T04:30:54.972Z,0
2018-04-07T04:31:20.469Z,0
2018-04-07T04:31:45.972Z,0
2018-04-07T04:32:11.462Z,0
2018-04-07T04:32:37.005Z,0
2018-04-07T04:33:02.440Z,0
2018-04-07T04:33:27.925Z,0
2018-04-07T04:33:53.406Z,0
2018-04-07T04:34:18.874Z,0
2018-04-07T04:34:44.353Z,0
2018-04-07T04:35:09.816Z,0
2018-04-07T04:35:35.307Z,0
2018-04-07T04:36:00.783Z,0
2018-04-07T04:36:26.309Z,0
2018-04-07T04:36:51.710Z,0
2018-04-07T04:37:17.171Z,0
2018-04-07T04:37:42.639Z,0
2018-04-07T04:38:08.142Z,0
2018-04-07T04:38:33.628Z,0
2018-04-07T04:38:59.126Z,0
2018-04-07T04:39:24.597Z,0
2018-04-07T04:39:50.102Z,0
2018-04-07T04:40:15.600Z,0
2018-04-07T04:40:41.100Z,0
2018-04-07T04:41:06.597Z,0
2018-04-07T04:41:32.092Z,0
2018-04-07T04:41:57.593Z,0
2018-04-07T04:42:23.096Z,0
2018-04-07T04:42:48.601Z,0
2018-04-07T04:43:14.092Z,0
2018-04-07T04:43:39.586Z,0
2018-04-07T04:44:05.061Z,0
2018-04-07T04:44:30.515Z,0
2018-04-07T04:44:56.006Z,0
2018-04-07T04:45:21.508Z,0
2018-04-07T04:45:47.021Z,0
2018-04-07T04:46:12.497Z,0
2018-04-07T04:46:37.986Z,0
2018-04-07T04:47:03.440Z,5
2018-04-07T04:47:28.917Z,5
2018-04-07T04:47:54.393Z,5
2018-04-07T04:48:19.877Z,5
2018-04-07T04:48:45.396Z,5
2018-04-07T04:49:10.888Z,5
2018-04-07T04:49:36.352Z,5
2018-04-07T04:50:01.838Z,5
2018-04-07T04:50:27.298Z,5
2018-04-07T04:50:52.785Z,5
2018-04-07T04:51:18.247Z,5
2018-04-07T04:51:43.722Z,5
2018-04-07T04:52:09.210Z,5
2018-04-07T04:52:34.713Z,5
2018-04-07T04:53:00.221Z,5
2018-04-07T04:53:25.728Z,5
2018-04-07T04:53:51.234Z,10
2018-04-07T04:54:16.728Z,10
2018-04-07T04:54:42.217Z,10
2018-04-07T04:55:07.738Z,10
2018-04-07T04:55:33.214Z,10
2018-04-07T04:55:58.676Z,10
2018-04-07T04:56:24.156Z,10
2018-04-07T04:56:49.651Z,10
2018-04-07T04:57:15.133Z,15
2018-04-07T04:57:40.594Z,15
2018-04-07T04:58:06.069Z,15
2018-04-07T04:58:31.547Z,15
2018-04-07T04:58:57.014Z,15
2018-04-07T04:59:22.501Z,15
2018-04-07T04:59:48.011Z,15
2018-04-07T05:00:13.493Z,15
2018-04-07T05:00:38.990Z,20
2018-04-07T05:01:04.483Z,20
2018-04-07T05:01:29.961Z,20
2018-04-07T05:01:55.422Z,20
2018-04-07T05:02:20.906Z,20
2018-04-07T05:02:46.376Z,20
2018-04-07T05:03:11.874Z,20
2018-04-07T05:03:37.378Z,25
2018-04-07T05:04:02.877Z,25
2018-04-07T05:04:28.374Z,25
2018-04-07T05:04:53.870Z,25
2018-04-07T05:05:19.347Z,25
2018-04-07T05:05:44.848Z,25
2018-04-07T05:06:10.324Z,25
2018-04-07T05:06:35.837Z,25
2018-04-07T05:07:01.313Z,30
2018-04-07T05:07:26.812Z,30
2018-04-07T05:07:52.321Z,30
2018-04-07T05:08:17.809Z,30
2018-04-07T05:08:43.310Z,30
2018-04-07T05:09:08.826Z,30
2018-04-07T05:09:34.335Z,30
2018-04-07T05:09:59.837Z,30
2018-04-07T05:10:25.342Z,35
2018-04-07T05:10:50.844Z,35
2018-04-07T05:11:16.352Z,35
2018-04-07T05:11:41.837Z,35
2018-04-07T05:12:07.331Z,35
2018-04-07T05:12:32.834Z,35
2018-04-07T05:12:58.339Z,35
2018-04-07T05:13:23.831Z,40
2018-04-07T05:13:49.328Z,40
2018-04-07T05:14:14.833Z,40
2018-04-07T05:14:40.332Z,40
2018-04-07T05:15:05.820Z,40
2018-04-07T05:15:31.345Z,40
2018-04-07T05:15:56.838Z,40
2018-04-07T05:16:22.316Z,40
2018-04-07T05:16:47.809Z,45
2018-04-07T05:17:13.300Z,45
2018-04-07T05:17:38.794Z,45
2018-04-07T05:18:04.292Z,45
2018-04-07T05:18:29.779Z,45
2018-04-07T05:18:55.276Z,45
2018-04-07T05:19:20.779Z,45
2018-04-07T05:19:46.282Z,50
2018-04-07T05:20:11.783Z,50
2018-04-07T05:20:37.280Z,50
2018-04-07T05:21:02.785Z,50
2018-04-07T05:21:28.279Z,50
2018-04-07T05:21:53.761Z,50
2018-04-07T05:22:19.242Z,50
2018-04-07T05:22:44.699Z,50
2018-04-07T05:23:10.193Z,55
2018-04-07T05:23:35.667Z,55
2018-04-07T05:24:01.160Z,55
2018-04-07T05:24:26.662Z,55
2018-04-07T05:24:52.173Z,55
2018-04-07T05:25:17.637Z,55
2018-04-07T05:25:43.159Z,60
2018-04-07T05:26:08.659Z,60
2018-04-07T05:26:34.131Z,60
2018-04-07T05:26:59.614Z,60
2018-04-07T05:27:25.102Z,60
2018-04-07T05:27:50.569Z,60
2018-04-07T05:28:16.040Z,65
2018-04-07T05:28:41.510Z,65
2018-04-07T05:29:06.972Z,65
2018-04-07T05:29:32.453Z,65
2018-04-07T05:29:57.922Z,65
2018-04-07T05:30:23.427Z,65
2018-04-07T05:30:48.892Z,65
2018-04-07T05:31:14.349Z,65
2018-04-07T05:31:39.839Z,65
2018-04-07T05:32:05.306Z,65
2018-04-07T05:32:30.774Z,65
2018-04-07T05:32:56.258Z,70
2018-04-07T05:33:21.768Z,70
2018-04-07T05:33:47.259Z,70
2018-04-07T05:34:12.718Z,70
2018-04-07T05:34:38.192Z,70
2018-04-07T05:35:03.659Z,75
2018-04-07T05:35:29.145Z,75
2018-04-07T05:35:54.642Z,75
2018-04-07T05:36:20.140Z,75
2018-04-07T05:36:45.635Z,75
2018-04-07T05:37:11.106Z,75
2018-04-07T05:37:36.595Z,80
2018-04-07T05:38:02.103Z,80
2018-04-07T05:38:27.602Z,80
2018-04-07T05:38:53.090Z,80
2018-04-07T05:39:18.596Z,80
2018-04-07T05:39:44.096Z,85
2018-04-07T05:40:09.600Z,85
2018-04-07T05:40:35.112Z,85
2018-04-07T05:41:00.616Z,85
2018-04-07T05:41:26.124Z,85
2018-04-07T05:41:51.614Z,90
2018-04-07T05:42:17.121Z,90
2018-04-07T05:42:42.636Z,90
2018-04-07T05:43:08.140Z,90
2018-04-07T05:43:33.656Z,95
2018-04-07T05:43:59.161Z,95
2018-04-07T05:44:24.656Z,100
2018-04-07T05:44:50.156Z,100
2018-04-07T05:45:15.663Z,100
2018-04-07T05:45:41.166Z,105
2018-04-07T05:46:06.659Z,105
2018-04-07T05:46:32.162Z,105
2018-04-07T05:46:57.658Z,105
2018-04-07T05:47:23.154Z,105
2018-04-07T05:47:48.657Z,105
2018-04-07T05:48:14.149Z,105
2018-04-07T05:48:39.653Z,105
2018-04-07T05:49:05.172Z,105
2018-04-07T05:49:30.671Z,105
2018-04-07T05:49:56.176Z,110
2018-04-07T05:50:21.680Z,110
2018-04-07T05:50:47.176Z,115
2018-04-07T05:51:12.683Z,115
2018-04-07T05:51:38.191Z,120
2018-04-07T05:52:03.697Z,120
2018-04-07T05:52:29.199Z,125
2018-04-07T05:52:54.699Z,125
2018-04-07T05:53:20.203Z,125
2018-04-07T05:53:45.697Z,125
2018-04-07T05:54:11.199Z,130
2018-04-07T05:54:36.695Z,125
2018-04-07T05:55:02.188Z,125
2018-04-07T05:55:27.686Z,125
2018-04-07T05:55:53.192Z,125
2018-04-07T05:56:18.698Z,125
2018-04-07T05:56:44.202Z,125
2018-04-07T05:57:09.704Z,130
2018-04-07T05:57:35.182Z,130
2018-04-07T05:58:00.681Z,125
2018-04-07T05:58:26.185Z,125
2018-04-07T05:58:51.676Z,130
2018-04-07T05:59:17.182Z,130
2018-04-07T05:59:42.683Z,130
2018-04-07T06:00:08.193Z,130
2018-04-07T06:00:33.691Z,130
2018-04-07T06:00:59.186Z,130
2018-04-07T06:01:24.695Z,130
2018-04-07T06:01:50.198Z,130
2018-04-07T06:02:15.705Z,130
2018-04-07T06:02:41.206Z,130
2018-04-07T06:03:06.711Z,135
2018-04-07T06:03:32.215Z,135
2018-04-07T06:03:57.716Z,135
2018-04-07T06:04:23.223Z,140
2018-04-07T06:04:48.734Z,140
2018-04-07T06:05:14.236Z,140
2018-04-07T06:05:39.742Z,140
2018-04-07T06:06:05.257Z,140
2018-04-07T06:06:30.762Z,140
2018-04-07T06:06:56.258Z,140
2018-04-07T06:07:21.758Z,140
2018-04-07T06:07:47.260Z,140
2018-04-07T06:08:12.753Z,140
2018-04-07T06:08:38.262Z,140
2018-04-07T06:09:03.763Z,140
2018-04-07T06:09:29.271Z,145
2018-04-07T06:09:54.773Z,135
2018-04-07T06:10:20.271Z,135
2018-04-07T06:10:45.778Z,140
2018-04-07T06:11:11.273Z,140
2018-04-07T06:11:36.781Z,140
2018-04-07T06:12:02.296Z,140
2018-04-07T06:12:27.799Z,135
2018-04-07T06:12:53.299Z,135
2018-04-07T06:13:18.808Z,140
2018-04-07T06:13:44.304Z,140
2018-04-07T06:14:09.813Z,140
2018-04-07T06:14:35.310Z,140
2018-04-07T06:15:00.806Z,145
2018-04-07T06:15:26.305Z,145
2018-04-07T06:15:51.812Z,140
2018-04-07T06:16:17.304Z,140
2018-04-07T06:16:42.807Z,140
2018-04-07T06:17:08.306Z,145
2018-04-07T06:17:33.807Z,145
2018-04-07T06:17:59.309Z,145
2018-04-07T06:18:24.808Z,145
2018-04-07T06:18:50.312Z,145
2018-04-07T06:19:15.815Z,145
2018-04-07T06:19:41.317Z,145
2018-04-07T06:20:06.821Z,145
2018-04-07T06:20:32.321Z,145
2018-04-07T06:20:57.818Z,150
2018-04-07T06:21:23.475Z,150
2018-04-07T06:21:48.965Z,150
2018-04-07T06:22:14.439Z,150
2018-04-07T06:22:39.952Z,150
2018-04-07T06:23:05.417Z,150
2018-04-07T06:23:30.919Z,150
2018-04-07T06:23:56.418Z,150
2018-04-07T06:24:21.915Z,155
2018-04-07T06:24:47.429Z,160
2018-04-07T06:25:12.940Z,150
2018-04-07T06:25:38.440Z,150
2018-04-07T06:26:03.942Z,150
2018-04-07T06:26:29.457Z,145
2018-04-07T06:26:54.937Z,150
2018-04-07T06:27:20.461Z,150
2018-04-07T06:27:45.957Z,150
2018-04-07T06:28:11.456Z,150
2018-04-07T06:28:36.940Z,155
2018-04-07T06:29:02.435Z,160
2018-04-07T06:29:27.943Z,145
2018-04-07T06:29:53.453Z,160
2018-04-07T06:30:18.954Z,155
2018-04-07T06:30:44.497Z,155
2018-04-07T06:31:09.996Z,155
2018-04-07T06:31:35.485Z,160
2018-04-07T06:32:00.986Z,160
2018-04-07T06:32:26.484Z,160
2018-04-07T06:32:51.971Z,160
2018-04-07T06:33:17.496Z,160
2018-04-07T06:33:43.000Z,160
2018-04-07T06:34:08.501Z,160
2018-04-07T06:34:33.993Z,155
2018-04-07T06:34:59.500Z,155
2018-04-07T06:35:25.022Z,160
2018-04-07T06:35:50.492Z,160
2018-04-07T06:36:16.013Z,160
2018-04-07T06:36:41.551Z,155
2018-04-07T06:38:00.579Z,155
2018-04-07T06:38:26.095Z,160
2018-04-07T06:38:51.851Z,160
2018-04-07T06:39:17.351Z,155
2018-04-07T06:39:42.860Z,155
2018-04-07T06:41:12.918Z,160
2018-04-07T06:41:38.534Z,160
2018-04-07T06:42:04.043Z,160
2018-04-07T06:42:29.518Z,160
2018-04-07T06:42:55.006Z,160
2018-04-07T06:43:20.496Z,165
2018-04-07T06:43:45.988Z,165
2018-04-07T06:44:11.523Z,165
2018-04-07T06:44:37.058Z,165
2018-04-07T06:45:02.541Z,165
2018-04-07T06:45:28.093Z,165
2018-04-07T06:45:53.617Z,165
2018-04-07T06:46:19.319Z,165
2018-04-07T06:46:44.887Z,165
2018-04-07T06:47:10.419Z,165
2018-04-07T06:47:35.927Z,165
2018-04-07T06:48:01.438Z,165
2018-04-07T06:48:26.917Z,165
2018-04-07T06:48:52.395Z,165
2018-04-07T06:49:17.900Z,165
2018-04-07T06:49:43.399Z,165
2018-04-07T06:50:08.864Z,160
2018-04-07T06:50:34.337Z,165
2018-04-07T06:50:59.831Z,165
2018-04-07T06:51:25.327Z,165
2018-04-07T06:51:50.911Z,165
2018-04-07T06:52:16.829Z,165
2018-04-07T06:52:42.480Z,170
2018-04-07T06:53:07.985Z,175
2018-04-07T06:53:33.541Z,170
2018-04-07T06:53:59.023Z,170
2018-04-07T06:54:24.528Z,170
2018-04-07T06:54:50.037Z,165
2018-04-07T06:55:15.526Z,165
2018-04-07T06:55:41.029Z,165
2018-04-07T06:56:06.521Z,170
2018-04-07T06:56:32.012Z,170
2018-04-07T06:56:57.498Z,170
2018-04-07T06:57:23.008Z,170
2018-04-07T06:57:48.501Z,170
2018-04-07T06:58:13.998Z,165
2018-04-07T06:58:39.504Z,155
2018-04-07T06:59:05.001Z,155
2018-04-07T06:59:30.509Z,155
2018-04-07T06:59:56.035Z,155
2018-04-07T07:00:21.541Z,155
2018-04-07T07:00:47.042Z,155
2018-04-07T07:01:12.543Z,155
2018-04-07T07:01:38.032Z,150
2018-04-07T07:02:03.542Z,155
2018-04-07T07:02:29.047Z,155
2018-04-07T07:02:54.539Z,165
2018-04-07T07:03:20.042Z,165
2018-04-07T07:03:45.551Z,170
2018-04-07T07:04:11.058Z,170
2018-04-07T07:04:36.560Z,170
2018-04-07T07:05:02.083Z,160
2018-04-07T07:05:27.580Z,155
2018-04-07T07:05:53.076Z,160
2018-04-07T07:06:18.576Z,165
2018-04-07T07:06:44.085Z,165
2018-04-07T07:07:09.587Z,165
2018-04-07T07:07:35.090Z,160
2018-04-07T07:08:00.597Z,160
2018-04-07T07:08:26.098Z,145
2018-04-07T07:08:51.597Z,145
2018-04-07T07:09:17.100Z,155
2018-04-07T07:09:42.603Z,165
2018-04-07T07:10:08.114Z,170
2018-04-07T07:10:33.619Z,170
2018-04-07T07:10:59.117Z,170
2018-04-07T07:11:24.618Z,170
2018-04-07T07:11:50.124Z,170
2018-04-07T07:12:15.625Z,170
2018-04-07T07:12:41.131Z,170
2018-04-07T07:13:06.630Z,170
2018-04-07T07:13:32.136Z,170
2018-04-07T07:13:57.635Z,170
2018-04-07T07:14:23.134Z,170
2018-04-07T07:14:48.641Z,170
2018-04-07T07:15:14.144Z,175
2018-04-07T07:15:39.851Z,175
2018-04-07T07:16:05.476Z,175
2018-04-07T07:16:30.997Z,175
2018-04-07T07:16:56.546Z,175
2018-04-07T07:17:22.188Z,180
2018-04-07T07:17:47.731Z,180
2018-04-07T07:18:13.373Z,180
2018-04-07T07:18:38.992Z,180
2018-04-07T07:19:04.586Z,185
2018-04-07T07:19:30.043Z,185
2018-04-07T07:19:55.559Z,180
2018-04-07T07:20:21.059Z,185
2018-04-07T07:20:46.605Z,185
2018-04-07T07:21:12.107Z,180
2018-04-07T07:21:37.587Z,185
2018-04-07T07:22:03.061Z,190
2018-04-07T07:22:28.587Z,190
2018-04-07T07:22:54.085Z,190
2018-04-07T07:23:19.589Z,195
2018-04-07T07:23:45.162Z,195
2018-04-07T07:24:10.666Z,195
2018-04-07T07:24:36.170Z,195
2018-04-07T07:25:01.685Z,195
2018-04-07T07:25:27.167Z,190
2018-04-07T07:25:52.746Z,190
2018-04-07T07:26:18.250Z,190
2018-04-07T07:26:43.913Z,190
2018-04-07T07:27:09.475Z,190
2018-04-07T07:27:35.038Z,185
2018-04-07T07:28:00.690Z,190
2018-04-07T07:28:26.299Z,185
2018-04-07T07:28:51.915Z,185
2018-04-07T07:29:17.432Z,185
2018-04-07T07:29:42.974Z,190
2018-04-07T07:30:08.551Z,185
2018-04-07T07:30:34.112Z,190
2018-04-07T07:30:59.650Z,190
2018-04-07T07:31:25.271Z,190
2018-04-07T07:31:50.835Z,190
2018-04-07T07:32:16.410Z,190
2018-04-07T07:32:41.963Z,190
2018-04-07T07:33:07.562Z,190
2018-04-07T07:33:33.067Z,190
2018-04-07T07:33:58.593Z,190
2018-04-07T07:34:24.134Z,195
2018-04-07T07:34:49.658Z,195
2018-04-07T07:35:15.138Z,190
2018-04-07T07:35:40.626Z,190
2018-04-07T07:36:06.118Z,190
2018-04-07T07:36:31.640Z,190
2018-04-07T07:36:57.115Z,195
2018-04-07T07:37:22.614Z,195
2018-04-07T07:37:48.125Z,195
2018-04-07T07:38:13.627Z,195
2018-04-07T07:38:39.133Z,195
2018-04-07T07:39:04.640Z,195
2018-04-07T07:39:30.146Z,200
2018-04-07T07:39:55.644Z,195
2018-04-07T07:40:21.162Z,190
2018-04-07T07:40:46.666Z,190
2018-04-07T07:41:12.349Z,190
2018-04-07T07:41:38.063Z,190
2018-04-07T07:42:03.894Z,190
2018-04-07T07:42:29.506Z,190
2018-04-07T07:42:55.306Z,190
2018-04-07T07:43:20.992Z,190
2018-04-07T07:43:46.613Z,190
2018-04-07T07:44:12.365Z,190
2018-04-07T07:44:38.136Z,190
2018-04-07T07:45:03.851Z,190
2018-04-07T07:45:29.539Z,190
2018-04-07T07:45:55.110Z,190
2018-04-07T07:46:20.819Z,185
2018-04-07T07:46:46.499Z,185
2018-04-07T07:47:12.105Z,190
2018-04-07T07:47:37.607Z,185
2018-04-07T07:48:03.236Z,185
2018-04-07T07:48:28.916Z,185
2018-04-07T07:48:54.613Z,185
2018-04-07T07:49:20.416Z,185
2018-04-07T07:49:46.058Z,185
2018-04-07T07:50:11.659Z,180
2018-04-07T07:50:37.364Z,180
2018-04-07T07:51:03.064Z,180
2018-04-07T07:51:28.752Z,180
2018-04-07T07:51:54.506Z,185
2018-04-07T07:52:20.235Z,185
2018-04-07T07:52:46.283Z,180
2018-04-07T07:53:11.806Z,180
2018-04-07T07:53:37.485Z,180
2018-04-07T07:54:03.188Z,180
2018-04-07T07:54:28.775Z,180
2018-04-07T07:54:54.454Z,180
2018-04-07T07:55:20.048Z,180
2018-04-07T07:55:45.649Z,180
2018-04-07T07:56:11.096Z,180
2018-04-07T07:56:36.610Z,180
2018-04-07T07:57:02.121Z,180
2018-04-07T07:57:27.624Z,175
2018-04-07T07:57:53.131Z,175
2018-04-07T07:58:18.635Z,180
2018-04-07T07:58:44.151Z,175
2018-04-07T07:59:09.649Z,175
2018-04-07T07:59:35.143Z,175
2018-04-07T08:00:00.648Z,180
2018-04-07T08:00:26.164Z,175
2018-04-07T08:00:51.651Z,175
2018-04-07T08:01:17.153Z,180
2018-04-07T08:01:42.663Z,180
2018-04-07T08:02:08.171Z,185
2018-04-07T08:02:33.682Z,185
2018-04-07T08:02:59.185Z,185
2018-04-07T08:03:24.684Z,185
2018-04-07T08:03:50.189Z,185
2018-04-07T08:04:15.681Z,185
2018-04-07T08:04:41.183Z,185
2018-04-07T08:05:06.688Z,185
2018-04-07T08:05:32.182Z,185
2018-04-07T08:05:57.687Z,185
2018-04-07T08:06:23.191Z,180
2018-04-07T08:06:48.691Z,180
2018-04-07T08:07:14.201Z,180
2018-04-07T08:07:39.699Z,180
2018-04-07T08:08:05.200Z,180
2018-04-07T08:08:30.705Z,185
2018-04-07T08:08:56.207Z,185
2018-04-07T08:09:21.698Z,185
2018-04-07T08:09:47.189Z,190
2018-04-07T08:10:12.680Z,180
2018-04-07T08:10:38.170Z,180
2018-04-07T08:11:03.671Z,180
2018-04-07T08:11:29.176Z,180
2018-04-07T08:11:54.683Z,180
2018-04-07T08:12:20.206Z,180
2018-04-07T08:12:45.714Z,185
2018-04-07T08:13:11.220Z,175
2018-04-07T08:13:36.725Z,175
2018-04-07T08:14:02.231Z,175
2018-04-07T08:14:27.747Z,175
2018-04-07T08:14:53.239Z,175
2018-04-07T08:15:18.746Z,175
2018-04-07T08:15:44.232Z,175
2018-04-07T08:16:09.744Z,170
2018-04-07T08:16:35.239Z,170
2018-04-07T08:17:00.770Z,170
2018-04-07T08:17:26.272Z,170
2018-04-07T08:17:51.763Z,170
2018-04-07T08:18:17.264Z,165
2018-04-07T08:18:42.771Z,165
2018-04-07T08:19:08.274Z,165
2018-04-07T08:19:33.773Z,165
2018-04-07T08:19:59.280Z,165
2018-04-07T08:20:24.789Z,165
2018-04-07T08:20:50.360Z,165
2018-04-07T08:21:15.809Z,165
2018-04-07T08:21:41.284Z,160
2018-04-07T08:22:06.788Z,160
2018-04-07T08:22:32.290Z,165
2018-04-07T08:22:57.805Z,160
2018-04-07T08:23:23.305Z,160
2018-04-07T08:23:48.808Z,160
2018-04-07T08:24:14.312Z,160
2018-04-07T08:24:39.826Z,160
2018-04-07T08:25:05.328Z,160
2018-04-07T08:25:30.821Z,160
2018-04-07T08:25:56.324Z,160
2018-04-07T08:26:21.827Z,160
2018-04-07T08:26:47.330Z,160
2018-04-07T08:27:12.819Z,160
2018-04-07T08:27:38.320Z,160
2018-04-07T08:28:03.823Z,160
2018-04-07T08:28:29.326Z,160
2018-04-07T08:28:54.824Z,160
2018-04-07T08:29:20.341Z,160
2018-04-07T08:29:45.833Z,160
2018-04-07T08:30:11.338Z,160
2018-04-07T08:30:36.838Z,160
2018-04-07T08:31:02.353Z,160
2018-04-07T08:31:27.848Z,160
2018-04-07T08:31:53.351Z,160
2018-04-07T08:32:18.857Z,160
2018-04-07T08:32:44.356Z,160
2018-04-07T08:33:09.857Z,160
2018-04-07T08:33:35.354Z,160
2018-04-07T08:34:00.854Z,160
2018-04-07T08:34:26.350Z,160
2018-04-07T08:34:51.837Z,160
2018-04-07T08:35:17.338Z,160
2018-04-07T08:35:42.829Z,160
2018-04-07T08:36:08.331Z,160
2018-04-07T08:36:33.839Z,160
2018-04-07T08:36:59.332Z,165
2018-04-07T08:37:24.837Z,160
2018-04-07T08:37:50.337Z,165
2018-04-07T08:38:15.837Z,165
2018-04-07T08:38:41.334Z,165
2018-04-07T08:39:06.813Z,165
2018-04-07T08:39:32.387Z,170
2018-04-07T08:39:57.793Z,170
2018-04-07T08:40:23.288Z,170
2018-04-07T08:40:48.788Z,170
2018-04-07T08:41:14.293Z,170
2018-04-07T08:41:39.796Z,170
2018-04-07T08:42:05.284Z,170
2018-04-07T08:42:30.764Z,170
2018-04-07T08:42:56.276Z,170
2018-04-07T08:43:21.770Z,170
2018-04-07T08:43:47.272Z,170
2018-04-07T08:44:12.780Z,170
2018-04-07T08:44:38.286Z,170
2018-04-07T08:45:03.778Z,170
2018-04-07T08:45:29.268Z,170
2018-04-07T08:45:54.781Z,170
2018-04-07T08:46:20.282Z,170
2018-04-07T08:46:45.774Z,170
2018-04-07T08:47:11.280Z,170
2018-04-07T08:47:36.774Z,170
2018-04-07T08:48:02.248Z,175
2018-04-07T08:48:27.740Z,175
2018-04-07T08:48:53.269Z,175
2018-04-07T08:49:18.736Z,170
2018-04-07T08:49:44.233Z,170
2018-04-07T08:50:09.777Z,170
2018-04-07T08:50:35.195Z,175
2018-04-07T08:51:00.707Z,175
2018-04-07T08:51:26.192Z,175
2018-04-07T08:51:51.693Z,175
2018-04-07T08:52:17.205Z,175
2018-04-07T08:52:42.701Z,175
2018-04-07T08:53:08.212Z,175
2018-04-07T08:53:33.725Z,175
2018-04-07T08:53:59.232Z,175
2018-04-07T08:54:24.723Z,175
2018-04-07T08:54:50.229Z,175
2018-04-07T08:55:15.725Z,175
2018-04-07T08:55:41.222Z,175
2018-04-07T08:56:06.729Z,170
2018-04-07T08:56:32.221Z,175
2018-04-07T08:56:57.719Z,175
2018-04-07T08:57:23.214Z,170
2018-04-07T08:57:48.682Z,170
2018-04-07T08:58:14.163Z,170
2018-04-07T08:58:39.653Z,175
2018-04-07T08:59:05.158Z,170
2018-04-07T08:59:30.650Z,170
2018-04-07T08:59:56.154Z,170
2018-04-07T09:00:21.653Z,170
2018-04-07T09:00:47.146Z,170
2018-04-07T09:01:12.657Z,170
2018-04-07T09:01:38.165Z,170
2018-04-07T09:02:03.662Z,170
2018-04-07T09:02:29.204Z,170
2018-04-07T09:02:54.652Z,170
2018-04-07T09:03:20.150Z,170
2018-04-07T09:03:45.682Z,170
2018-04-07T09:04:11.150Z,170
2018-04-07T09:04:36.642Z,170
2018-04-07T09:05:02.143Z,170
2018-04-07T09:05:27.635Z,170
2018-04-07T09:05:53.145Z,170
2018-04-07T09:06:18.639Z,165
2018-04-07T09:06:44.139Z,165
2018-04-07T09:07:09.639Z,165
2018-04-07T09:07:35.135Z,165
2018-04-07T09:08:00.734Z,165
2018-04-07T09:08:26.116Z,165
2018-04-07T09:08:51.613Z,165
2018-04-07T09:09:17.122Z,165
2018-04-07T09:09:42.624Z,160
2018-04-07T09:10:08.133Z,160
2018-04-07T09:10:33.617Z,160
2018-04-07T09:10:59.117Z,160
2018-04-07T09:11:24.597Z,160
2018-04-07T09:11:50.085Z,160
2018-04-07T09:12:15.582Z,155
2018-04-07T09:12:41.076Z,155
2018-04-07T09:13:06.594Z,160
2018-04-07T09:13:32.101Z,155
2018-04-07T09:13:57.600Z,155
2018-04-07T09:14:23.101Z,155
2018-04-07T09:14:48.598Z,160
2018-04-07T09:15:14.081Z,160
2018-04-07T09:15:39.591Z,160
2018-04-07T09:16:05.089Z,160
2018-04-07T09:16:30.588Z,160
2018-04-07T09:16:56.087Z,160
2018-04-07T09:17:21.588Z,160
2018-04-07T09:17:47.083Z,160
2018-04-07T09:18:12.582Z,160
2018-04-07T09:18:38.074Z,160
2018-04-07T09:19:03.582Z,160
2018-04-07T09:19:29.096Z,160
2018-04-07T09:19:54.599Z,160
2018-04-07T09:20:20.076Z,160
2018-04-07T09:20:45.563Z,160
2018-04-07T09:21:11.074Z,160
2018-04-07T09:21:36.581Z,160
2018-04-07T09:22:02.086Z,160
2018-04-07T09:22:27.589Z,160
2018-04-07T09:22:53.095Z,160
2018-04-07T09:23:18.595Z,160
2018-04-07T09:23:44.092Z,160
2018-04-07T09:24:09.608Z,165
2018-04-07T09:24:35.112Z,165
2018-04-07T09:25:00.623Z,165
2018-04-07T09:25:26.152Z,160
2018-04-07T09:25:51.651Z,160
2018-04-07T09:26:17.146Z,160
2018-04-07T09:26:42.649Z,160
2018-04-07T09:27:08.163Z,160
2018-04-07T09:27:33.661Z,160
2018-04-07T09:27:59.179Z,160
2018-04-07T09:28:24.667Z,160
2018-04-07T09:28:50.168Z,160
2018-04-07T09:29:15.660Z,155
2018-04-07T09:29:41.155Z,155
2018-04-07T09:30:06.657Z,155
2018-04-07T09:30:32.156Z,155
2018-04-07T09:30:57.657Z,155
2018-04-07T09:31:23.161Z,155
2018-04-07T09:31:48.740Z,155
2018-04-07T09:32:14.267Z,155
2018-04-07T09:32:39.772Z,155
2018-04-07T09:33:05.264Z,155
2018-04-07T09:33:30.761Z,155
2018-04-07T09:33:56.346Z,155
2018-04-07T09:34:21.861Z,155
2018-04-07T09:34:47.355Z,155
2018-04-07T09:35:12.850Z,155
2018-04-07T09:35:38.338Z,155
2018-04-07T09:36:03.849Z,150
2018-04-07T09:36:29.364Z,150
2018-04-07T09:36:54.865Z,150
2018-04-07T09:37:20.372Z,150
2018-04-07T09:37:45.865Z,150
2018-04-07T09:38:11.377Z,150
2018-04-07T09:38:36.882Z,155
2018-04-07T09:39:02.383Z,155
2018-04-07T09:39:27.873Z,150
2018-04-07T09:39:53.363Z,150
2018-04-07T09:40:18.853Z,155
2018-04-07T09:40:44.337Z,155
2018-04-07T09:41:09.826Z,155
2018-04-07T09:41:35.334Z,155
2018-04-07T09:42:00.856Z,155
2018-04-07T09:42:26.331Z,155
2018-04-07T09:42:51.832Z,155
2018-04-07T09:43:17.337Z,155
2018-04-07T09:43:42.827Z,155
2018-04-07T09:44:08.336Z,155
2018-04-07T09:44:33.846Z,150
2018-04-07T09:44:59.347Z,150
2018-04-07T09:45:24.852Z,150
2018-04-07T09:45:50.366Z,150
2018-04-07T09:46:15.908Z,150
2018-04-07T09:46:41.578Z,150
2018-04-07T09:47:07.088Z,150
2018-04-07T09:47:32.589Z,150
2018-04-07T09:47:58.086Z,150
2018-04-07T09:48:23.582Z,150
2018-04-07T09:48:49.093Z,150
2018-04-07T09:49:14.591Z,150
2018-04-07T09:49:40.160Z,150
2018-04-07T09:50:05.668Z,150
2018-04-07T09:50:31.168Z,150
2018-04-07T09:50:56.688Z,150
2018-04-07T09:51:22.137Z,150
2018-04-07T09:51:47.640Z,150
2018-04-07T09:52:13.203Z,150
2018-04-07T09:52:38.725Z,150
2018-04-07T09:53:04.264Z,150
2018-04-07T09:53:29.788Z,150
2018-04-07T09:53:55.287Z,145
2018-04-07T09:54:20.795Z,145
2018-04-07T09:54:46.300Z,145
2018-04-07T09:55:11.811Z,145
2018-04-07T09:55:37.310Z,145
2018-04-07T09:56:02.811Z,145
2018-04-07T09:56:28.273Z,145
2018-04-07T09:56:53.782Z,145
2018-04-07T09:57:19.273Z,145
2018-04-07T09:57:44.772Z,145
2018-04-07T09:58:10.265Z,145
2018-04-07T09:58:35.765Z,145
2018-04-07T09:59:01.259Z,145